sensor_id;sensor_type;location;lat;lon;timestamp;temperature;humidity
3100;DHT22;1560;52.746;13.474;2023-05-10T00:01:38;11.80;99.90
3100;DHT22;1560;52.746;13.474;2023-05-10T00:04:08;11.70;30.70
3100;DHT22;1560;52.746;13.474;2023-05-10T00:06:37;11.70;99.90
3100;DHT22;1560;52.746;13.474;2023-05-10T00:09:06;11.70;99.90
3100;DHT22;1560;52.746;13.474;2023-05-10T00:11:35;11.60;1.00
3100;DHT22;1560;52.746;13.474;2023-05-10T00:16:42;11.50;99.90
3100;DHT22;1560;52.746;13.474;2023-05-10T00:21:49;11.50;99.90
3100;DHT22;1560;52.746;13.474;2023-05-10T00:24:19;11.50;1.00
3100;DHT22;1560;52.746;13.474;2023-05-10T00:26:48;11.50;99.90
3100;DHT22;1560;52.746;13.474;2023-05-10T00:43:02;11.50;99.90
3100;DHT22;1560;52.746;13.474;2023-05-10T00:45:33;11.50;99.90
3100;DHT22;1560;52.746;13.474;2023-05-10T00:48:05;11.50;1.00
3100;DHT22;1560;52.746;13.474;2023-05-10T00:50:34;11.50;99.90
3100;DHT22;1560;52.746;13.474;2023-05-10T00:53:03;11.40;99.90
3100;DHT22;1560;52.746;13.474;2023-05-10T00:55:33;11.40;1.00
3100;DHT22;1560;52.746;13.474;2023-05-10T00:58:02;11.40;1.00
3100;DHT22;1560;52.746;13.474;2023-05-10T01:03:13;11.30;1.00
3100;DHT22;1560;52.746;13.474;2023-05-10T01:05:42;11.30;99.90
3100;DHT22;1560;52.746;13.474;2023-05-10T01:10:48;11.30;99.90
3100;DHT22;1560;52.746;13.474;2023-05-10T01:13:26;11.20;25.40
3100;DHT22;1560;52.746;13.474;2023-05-10T01:15:54;11.20;1.00
3100;DHT22;1560;52.746;13.474;2023-05-10T01:18:24;11.10;77.90
3100;DHT22;1560;52.746;13.474;2023-05-10T01:20:59;11.10;99.90
3100;DHT22;1560;52.746;13.474;2023-05-10T01:23:38;11.00;1.00
3100;DHT22;1560;52.746;13.474;2023-05-10T01:26:15;11.00;99.90
3100;DHT22;1560;52.746;13.474;2023-05-10T01:29:26;11.00;99.90
3100;DHT22;1560;52.746;13.474;2023-05-10T01:35:00;11.00;99.90
3100;DHT22;1560;52.746;13.474;2023-05-10T01:40:14;10.90;1.00
3100;DHT22;1560;52.746;13.474;2023-05-10T01:42:49;10.90;99.90
3100;DHT22;1560;52.746;13.474;2023-05-10T01:45:24;10.90;99.90
3100;DHT22;1560;52.746;13.474;2023-05-10T01:50:37;10.80;99.90
3100;DHT22;1560;52.746;13.474;2023-05-10T01:53:08;10.80;99.90
3100;DHT22;1560;52.746;13.474;2023-05-10T01:55:45;10.80;1.00
3100;DHT22;1560;52.746;13.474;2023-05-10T01:58:17;10.70;1.00
3100;DHT22;1560;52.746;13.474;2023-05-10T02:00:48;10.70;1.00
3100;DHT22;1560;52.746;13.474;2023-05-10T02:06:05;10.70;99.90
3100;DHT22;1560;52.746;13.474;2023-05-10T02:08:36;10.60;99.90
3100;DHT22;1560;52.746;13.474;2023-05-10T02:11:08;10.60;99.90
3100;DHT22;1560;52.746;13.474;2023-05-10T02:13:39;10.60;1.00
3100;DHT22;1560;52.746;13.474;2023-05-10T02:16:11;10.60;1.00
3100;DHT22;1560;52.746;13.474;2023-05-10T02:18:42;10.60;26.30
3100;DHT22;1560;52.746;13.474;2023-05-10T02:23:52;10.50;1.00
3100;DHT22;1560;52.746;13.474;2023-05-10T02:26:23;10.50;99.90
3100;DHT22;1560;52.746;13.474;2023-05-10T02:28:54;10.50;99.90
3100;DHT22;1560;52.746;13.474;2023-05-10T02:34:07;10.50;90.00
3100;DHT22;1560;52.746;13.474;2023-05-10T02:39:15;10.50;1.00
3100;DHT22;1560;52.746;13.474;2023-05-10T02:41:46;10.40;99.90
3100;DHT22;1560;52.746;13.474;2023-05-10T02:46:59;10.30;1.00
3100;DHT22;1560;52.746;13.474;2023-05-10T02:49:28;10.30;1.00
3100;DHT22;1560;52.746;13.474;2023-05-10T02:51:59;10.30;99.90
3100;DHT22;1560;52.746;13.474;2023-05-10T02:54:33;10.30;99.90
3100;DHT22;1560;52.746;13.474;2023-05-10T02:59:41;10.30;99.90
3100;DHT22;1560;52.746;13.474;2023-05-10T03:02:11;10.30;1.00
3100;DHT22;1560;52.746;13.474;2023-05-10T03:04:43;10.30;99.90
3100;DHT22;1560;52.746;13.474;2023-05-10T03:07:13;10.30;99.90
3100;DHT22;1560;52.746;13.474;2023-05-10T03:09:47;10.30;96.80
3100;DHT22;1560;52.746;13.474;2023-05-10T03:15:03;10.30;1.00
3100;DHT22;1560;52.746;13.474;2023-05-10T03:20:16;10.30;99.90
3100;DHT22;1560;52.746;13.474;2023-05-10T03:25:27;10.20;99.90
3100;DHT22;1560;52.746;13.474;2023-05-10T03:27:58;10.20;99.90
3100;DHT22;1560;52.746;13.474;2023-05-10T03:33:07;10.20;99.90
3100;DHT22;1560;52.746;13.474;2023-05-10T03:35:37;10.10;99.90
3100;DHT22;1560;52.746;13.474;2023-05-10T03:38:06;10.10;99.90
3100;DHT22;1560;52.746;13.474;2023-05-10T03:40:36;10.10;99.90
3100;DHT22;1560;52.746;13.474;2023-05-10T03:45:48;10.10;99.90
3100;DHT22;1560;52.746;13.474;2023-05-10T03:48:17;10.10;99.90
3100;DHT22;1560;52.746;13.474;2023-05-10T03:50:47;10.00;99.90
3100;DHT22;1560;52.746;13.474;2023-05-10T03:53:17;10.00;1.00
3100;DHT22;1560;52.746;13.474;2023-05-10T03:55:46;10.10;1.00
3100;DHT22;1560;52.746;13.474;2023-05-10T04:00:55;10.00;99.90
3100;DHT22;1560;52.746;13.474;2023-05-10T04:03:25;10.10;99.90
3100;DHT22;1560;52.746;13.474;2023-05-10T04:06:00;10.10;1.00
3100;DHT22;1560;52.746;13.474;2023-05-10T04:08:29;10.00;1.00
3100;DHT22;1560;52.746;13.474;2023-05-10T04:11:06;10.10;99.90
3100;DHT22;1560;52.746;13.474;2023-05-10T04:13:36;10.10;99.90
3100;DHT22;1560;52.746;13.474;2023-05-10T04:16:06;10.10;99.90
3100;DHT22;1560;52.746;13.474;2023-05-10T04:18:36;10.20;99.90
3100;DHT22;1560;52.746;13.474;2023-05-10T04:21:10;10.10;99.90
3100;DHT22;1560;52.746;13.474;2023-05-10T04:26:22;10.20;99.90
3100;DHT22;1560;52.746;13.474;2023-05-10T04:28:52;10.20;1.00
3100;DHT22;1560;52.746;13.474;2023-05-10T04:34:01;10.20;99.90
3100;DHT22;1560;52.746;13.474;2023-05-10T04:36:30;10.20;1.00
3100;DHT22;1560;52.746;13.474;2023-05-10T04:39:05;10.30;1.00
3100;DHT22;1560;52.746;13.474;2023-05-10T04:41:35;10.30;1.00
3100;DHT22;1560;52.746;13.474;2023-05-10T04:44:04;10.30;1.00
3100;DHT22;1560;52.746;13.474;2023-05-10T04:49:12;10.30;99.90
3100;DHT22;1560;52.746;13.474;2023-05-10T04:51:42;10.40;1.00
3100;DHT22;1560;52.746;13.474;2023-05-10T04:54:11;10.40;99.90
3100;DHT22;1560;52.746;13.474;2023-05-10T04:59:19;10.50;99.90
3100;DHT22;1560;52.746;13.474;2023-05-10T05:01:50;10.50;1.00
3100;DHT22;1560;52.746;13.474;2023-05-10T05:04:19;10.40;99.90
3100;DHT22;1560;52.746;13.474;2023-05-10T05:06:50;10.50;99.90
3100;DHT22;1560;52.746;13.474;2023-05-10T05:11:59;10.50;27.00
3100;DHT22;1560;52.746;13.474;2023-05-10T05:14:29;10.60;1.00
3100;DHT22;1560;52.746;13.474;2023-05-10T05:16:58;10.60;1.00
3100;DHT22;1560;52.746;13.474;2023-05-10T05:22:08;10.70;1.00
3100;DHT22;1560;52.746;13.474;2023-05-10T05:24:38;10.70;1.00
3100;DHT22;1560;52.746;13.474;2023-05-10T05:27:08;10.80;99.90
3100;DHT22;1560;52.746;13.474;2023-05-10T05:29:37;10.80;99.90
3100;DHT22;1560;52.746;13.474;2023-05-10T05:32:07;10.90;99.90
3100;DHT22;1560;52.746;13.474;2023-05-10T05:37:15;11.00;99.90
3100;DHT22;1560;52.746;13.474;2023-05-10T05:42:22;11.20;99.90
3100;DHT22;1560;52.746;13.474;2023-05-10T05:44:51;11.30;99.90
3100;DHT22;1560;52.746;13.474;2023-05-10T05:47:20;11.40;99.90
3100;DHT22;1560;52.746;13.474;2023-05-10T05:49:49;11.50;1.00
3100;DHT22;1560;52.746;13.474;2023-05-10T05:52:18;11.60;99.90
3100;DHT22;1560;52.746;13.474;2023-05-10T05:57:26;11.80;1.00
3100;DHT22;1560;52.746;13.474;2023-05-10T05:59:55;11.90;99.90
3100;DHT22;1560;52.746;13.474;2023-05-10T06:05:00;12.20;1.00
3100;DHT22;1560;52.746;13.474;2023-05-10T06:10:08;12.40;1.00
3100;DHT22;1560;52.746;13.474;2023-05-10T06:12:37;12.60;29.30
3100;DHT22;1560;52.746;13.474;2023-05-10T06:15:09;12.70;99.90
3100;DHT22;1560;52.746;13.474;2023-05-10T06:20:18;12.90;1.00
3100;DHT22;1560;52.746;13.474;2023-05-10T06:22:47;13.10;1.00
3100;DHT22;1560;52.746;13.474;2023-05-10T06:25:16;13.20;99.90
3100;DHT22;1560;52.746;13.474;2023-05-10T06:27:47;13.30;1.00
3100;DHT22;1560;52.746;13.474;2023-05-10T06:30:16;13.40;25.30
3100;DHT22;1560;52.746;13.474;2023-05-10T06:32:45;13.60;99.90
3100;DHT22;1560;52.746;13.474;2023-05-10T06:37:52;13.80;1.00
3100;DHT22;1560;52.746;13.474;2023-05-10T06:40:24;13.90;99.90
3100;DHT22;1560;52.746;13.474;2023-05-10T06:45:32;14.10;99.90
3100;DHT22;1560;52.746;13.474;2023-05-10T06:48:02;14.30;99.90
3100;DHT22;1560;52.746;13.474;2023-05-10T06:50:31;14.30;99.90
3100;DHT22;1560;52.746;13.474;2023-05-10T06:53:01;14.40;1.00
3100;DHT22;1560;52.746;13.474;2023-05-10T06:55:30;14.40;99.90
3100;DHT22;1560;52.746;13.474;2023-05-10T06:57:59;14.60;99.90
3100;DHT22;1560;52.746;13.474;2023-05-10T07:00:29;14.70;99.90
3100;DHT22;1560;52.746;13.474;2023-05-10T07:02:59;14.80;99.90
3100;DHT22;1560;52.746;13.474;2023-05-10T07:05:28;14.80;3.20
3100;DHT22;1560;52.746;13.474;2023-05-10T07:10:39;15.00;1.00
3100;DHT22;1560;52.746;13.474;2023-05-10T07:13:08;15.10;1.00
3100;DHT22;1560;52.746;13.474;2023-05-10T07:15:37;15.10;99.90
3100;DHT22;1560;52.746;13.474;2023-05-10T07:20:46;15.30;99.90
3100;DHT22;1560;52.746;13.474;2023-05-10T07:23:15;15.40;99.90
3100;DHT22;1560;52.746;13.474;2023-05-10T07:25:46;15.40;1.00
3100;DHT22;1560;52.746;13.474;2023-05-10T07:28:17;15.50;99.90
3100;DHT22;1560;52.746;13.474;2023-05-10T07:30:46;15.60;1.00
3100;DHT22;1560;52.746;13.474;2023-05-10T07:33:15;15.70;1.00
3100;DHT22;1560;52.746;13.474;2023-05-10T07:35:44;15.80;99.90
3100;DHT22;1560;52.746;13.474;2023-05-10T07:38:14;15.90;99.90
3100;DHT22;1560;52.746;13.474;2023-05-10T07:40:43;16.00;99.90
3100;DHT22;1560;52.746;13.474;2023-05-10T07:43:12;16.10;99.90
3100;DHT22;1560;52.746;13.474;2023-05-10T07:45:41;16.10;20.70
3100;DHT22;1560;52.746;13.474;2023-05-10T07:50:49;16.30;99.90
3100;DHT22;1560;52.746;13.474;2023-05-10T07:53:18;16.40;99.90
3100;DHT22;1560;52.746;13.474;2023-05-10T07:58:32;16.70;2.80
3100;DHT22;1560;52.746;13.474;2023-05-10T08:01:01;16.90;1.00
3100;DHT22;1560;52.746;13.474;2023-05-10T08:03:31;16.90;1.00
3100;DHT22;1560;52.746;13.474;2023-05-10T08:06:00;17.00;1.00
3100;DHT22;1560;52.746;13.474;2023-05-10T08:08:29;17.20;1.00
3100;DHT22;1560;52.746;13.474;2023-05-10T08:13:36;17.40;1.00
3100;DHT22;1560;52.746;13.474;2023-05-10T08:16:05;17.60;99.90
3100;DHT22;1560;52.746;13.474;2023-05-10T08:21:19;17.70;99.90
3100;DHT22;1560;52.746;13.474;2023-05-10T08:23:48;17.80;99.90
3100;DHT22;1560;52.746;13.474;2023-05-10T08:28:58;18.00;99.90
3100;DHT22;1560;52.746;13.474;2023-05-10T08:31:28;18.00;99.90
3100;DHT22;1560;52.746;13.474;2023-05-10T08:36:37;18.20;99.90
3100;DHT22;1560;52.746;13.474;2023-05-10T08:39:06;18.30;99.90
3100;DHT22;1560;52.746;13.474;2023-05-10T08:41:36;18.50;99.90
3100;DHT22;1560;52.746;13.474;2023-05-10T08:44:08;18.70;99.90
3100;DHT22;1560;52.746;13.474;2023-05-10T08:46:41;18.80;99.90
3100;DHT22;1560;52.746;13.474;2023-05-10T08:49:27;18.80;99.90
3100;DHT22;1560;52.746;13.474;2023-05-10T08:52:06;18.90;99.90
3100;DHT22;1560;52.746;13.474;2023-05-10T08:54:39;19.10;99.90
3100;DHT22;1560;52.746;13.474;2023-05-10T08:59:51;19.20;99.90
3100;DHT22;1560;52.746;13.474;2023-05-10T09:02:24;19.30;99.90
3100;DHT22;1560;52.746;13.474;2023-05-10T09:04:54;19.20;99.30
3100;DHT22;1560;52.746;13.474;2023-05-10T09:07:26;19.30;99.90
3100;DHT22;1560;52.746;13.474;2023-05-10T09:12:40;19.30;32.50
3100;DHT22;1560;52.746;13.474;2023-05-10T09:15:19;19.50;61.80
3100;DHT22;1560;52.746;13.474;2023-05-10T09:17:53;19.50;34.50
3100;DHT22;1560;52.746;13.474;2023-05-10T09:20:25;19.70;25.30
3100;DHT22;1560;52.746;13.474;2023-05-10T09:22:55;19.90;52.40
3100;DHT22;1560;52.746;13.474;2023-05-10T09:25:24;20.00;6.40
3100;DHT22;1560;52.746;13.474;2023-05-10T09:30:37;20.10;1.00
3100;DHT22;1560;52.746;13.474;2023-05-10T09:33:10;20.20;19.40
3100;DHT22;1560;52.746;13.474;2023-05-10T09:36:09;20.40;1.00
3100;DHT22;1560;52.746;13.474;2023-05-10T09:38:54;20.40;1.00
3100;DHT22;1560;52.746;13.474;2023-05-10T09:41:24;20.40;1.00
3100;DHT22;1560;52.746;13.474;2023-05-10T09:46:36;20.30;1.00
3100;DHT22;1560;52.746;13.474;2023-05-10T09:49:09;20.40;1.00
3100;DHT22;1560;52.746;13.474;2023-05-10T09:54:22;20.70;38.20
3100;DHT22;1560;52.746;13.474;2023-05-10T09:59:34;21.20;1.00
3100;DHT22;1560;52.746;13.474;2023-05-10T10:02:03;21.50;1.00
3100;DHT22;1560;52.746;13.474;2023-05-10T10:07:27;22.10;1.00
3100;DHT22;1560;52.746;13.474;2023-05-10T10:12:46;22.40;1.00
3100;DHT22;1560;52.746;13.474;2023-05-10T10:15:17;22.20;1.00
3100;DHT22;1560;52.746;13.474;2023-05-10T10:20:36;22.10;1.00
3100;DHT22;1560;52.746;13.474;2023-05-10T10:23:10;22.20;1.00
3100;DHT22;1560;52.746;13.474;2023-05-10T10:25:39;22.50;1.00
3100;DHT22;1560;52.746;13.474;2023-05-10T10:28:16;22.80;1.00
3100;DHT22;1560;52.746;13.474;2023-05-10T10:44:38;22.20;1.00
3100;DHT22;1560;52.746;13.474;2023-05-10T10:47:24;23.10;1.00
3100;DHT22;1560;52.746;13.474;2023-05-10T10:52:45;23.30;1.00
3100;DHT22;1560;52.746;13.474;2023-05-10T10:55:22;23.70;1.00
3100;DHT22;1560;52.746;13.474;2023-05-10T11:01:23;23.60;1.00
3100;DHT22;1560;52.746;13.474;2023-05-10T11:04:20;23.10;1.00
3100;DHT22;1560;52.746;13.474;2023-05-10T11:06:50;23.20;1.00
3100;DHT22;1560;52.746;13.474;2023-05-10T11:09:21;23.30;1.00
3100;DHT22;1560;52.746;13.474;2023-05-10T11:11:58;23.40;1.00
3100;DHT22;1560;52.746;13.474;2023-05-10T11:17:42;23.80;1.00
3100;DHT22;1560;52.746;13.474;2023-05-10T11:33:54;24.10;1.00
3100;DHT22;1560;52.746;13.474;2023-05-10T11:36:25;23.90;1.00
3100;DHT22;1560;52.746;13.474;2023-05-10T11:41:42;24.20;1.00
3100;DHT22;1560;52.746;13.474;2023-05-10T11:44:13;24.30;1.00
3100;DHT22;1560;52.746;13.474;2023-05-10T11:49:27;24.50;1.00
3100;DHT22;1560;52.746;13.474;2023-05-10T11:52:07;24.80;1.00
3100;DHT22;1560;52.746;13.474;2023-05-10T11:54:42;24.80;1.00
3100;DHT22;1560;52.746;13.474;2023-05-10T11:59:49;24.40;1.00
3100;DHT22;1560;52.746;13.474;2023-05-10T12:02:21;24.50;1.00
3100;DHT22;1560;52.746;13.474;2023-05-10T12:07:31;24.70;1.00
3100;DHT22;1560;52.746;13.474;2023-05-10T12:10:11;24.70;1.00
3100;DHT22;1560;52.746;13.474;2023-05-10T12:12:45;24.80;1.00
3100;DHT22;1560;52.746;13.474;2023-05-10T12:15:19;24.70;1.00
3100;DHT22;1560;52.746;13.474;2023-05-10T12:17:50;24.60;1.00
3100;DHT22;1560;52.746;13.474;2023-05-10T12:20:23;24.70;1.00
3100;DHT22;1560;52.746;13.474;2023-05-10T12:25:32;24.70;1.00
3100;DHT22;1560;52.746;13.474;2023-05-10T12:30:44;24.40;1.00
3100;DHT22;1560;52.746;13.474;2023-05-10T12:33:14;24.70;1.00
3100;DHT22;1560;52.746;13.474;2023-05-10T12:35:50;24.70;1.00
3100;DHT22;1560;52.746;13.474;2023-05-10T12:38:32;24.80;1.00
3100;DHT22;1560;52.746;13.474;2023-05-10T12:43:43;24.60;1.00
3100;DHT22;1560;52.746;13.474;2023-05-10T12:48:52;24.40;1.00
3100;DHT22;1560;52.746;13.474;2023-05-10T12:51:23;24.70;1.00
3100;DHT22;1560;52.746;13.474;2023-05-10T12:53:54;24.80;1.00
3100;DHT22;1560;52.746;13.474;2023-05-10T12:56:24;24.70;1.00
3100;DHT22;1560;52.746;13.474;2023-05-10T13:01:30;24.10;1.00
3100;DHT22;1560;52.746;13.474;2023-05-10T13:03:59;24.30;1.00
3100;DHT22;1560;52.746;13.474;2023-05-10T13:06:28;24.40;1.00
3100;DHT22;1560;52.746;13.474;2023-05-10T13:08:58;24.10;1.00
3100;DHT22;1560;52.746;13.474;2023-05-10T13:11:27;24.20;1.00
3100;DHT22;1560;52.746;13.474;2023-05-10T13:16:37;23.90;1.00
3100;DHT22;1560;52.746;13.474;2023-05-10T13:21:50;23.50;1.00
3100;DHT22;1560;52.746;13.474;2023-05-10T13:24:19;23.70;1.00
3100;DHT22;1560;52.746;13.474;2023-05-10T13:26:48;23.90;1.00
3100;DHT22;1560;52.746;13.474;2023-05-10T13:29:21;23.90;1.00
3100;DHT22;1560;52.746;13.474;2023-05-10T13:34:40;23.60;1.00
3100;DHT22;1560;52.746;13.474;2023-05-10T13:37:12;23.70;1.00
3100;DHT22;1560;52.746;13.474;2023-05-10T13:42:25;23.70;1.00
3100;DHT22;1560;52.746;13.474;2023-05-10T13:58:06;23.50;1.00
3100;DHT22;1560;52.746;13.474;2023-05-10T14:00:35;23.10;1.00
3100;DHT22;1560;52.746;13.474;2023-05-10T14:05:51;23.00;1.00
3100;DHT22;1560;52.746;13.474;2023-05-10T14:08:20;22.80;99.90
3100;DHT22;1560;52.746;13.474;2023-05-10T14:10:50;22.80;1.00
3100;DHT22;1560;52.746;13.474;2023-05-10T14:13:19;23.10;1.00
3100;DHT22;1560;52.746;13.474;2023-05-10T14:18:28;23.00;99.90
3100;DHT22;1560;52.746;13.474;2023-05-10T14:20:58;23.00;99.90
3100;DHT22;1560;52.746;13.474;2023-05-10T14:23:28;23.00;99.90
3100;DHT22;1560;52.746;13.474;2023-05-10T14:28:36;22.90;99.90
3100;DHT22;1560;52.746;13.474;2023-05-10T14:31:06;22.90;99.90
3100;DHT22;1560;52.746;13.474;2023-05-10T14:33:35;22.70;99.90
3100;DHT22;1560;52.746;13.474;2023-05-10T14:36:04;22.40;99.90
3100;DHT22;1560;52.746;13.474;2023-05-10T14:38:34;22.40;99.90
3100;DHT22;1560;52.746;13.474;2023-05-10T14:43:41;22.60;99.90
3100;DHT22;1560;52.746;13.474;2023-05-10T14:46:10;22.50;99.90
3100;DHT22;1560;52.746;13.474;2023-05-10T14:51:21;22.70;99.90
3100;DHT22;1560;52.746;13.474;2023-05-10T14:53:50;22.70;99.90
3100;DHT22;1560;52.746;13.474;2023-05-10T14:56:19;22.80;99.90
3100;DHT22;1560;52.746;13.474;2023-05-10T14:58:50;22.80;99.90
3100;DHT22;1560;52.746;13.474;2023-05-10T15:01:19;22.90;99.90
3100;DHT22;1560;52.746;13.474;2023-05-10T15:03:49;22.80;99.90
3100;DHT22;1560;52.746;13.474;2023-05-10T15:06:22;22.70;99.90
3100;DHT22;1560;52.746;13.474;2023-05-10T15:11:28;22.90;99.90
3100;DHT22;1560;52.746;13.474;2023-05-10T15:13:57;22.80;99.90
3100;DHT22;1560;52.746;13.474;2023-05-10T15:16:26;22.90;99.90
3100;DHT22;1560;52.746;13.474;2023-05-10T15:18:55;23.00;99.90
3100;DHT22;1560;52.746;13.474;2023-05-10T15:21:24;22.90;99.90
3100;DHT22;1560;52.746;13.474;2023-05-10T15:26:35;22.90;99.90
3100;DHT22;1560;52.746;13.474;2023-05-10T15:29:04;22.90;99.90
3100;DHT22;1560;52.746;13.474;2023-05-10T15:31:33;23.10;99.90
3100;DHT22;1560;52.746;13.474;2023-05-10T15:34:06;23.00;99.90
3100;DHT22;1560;52.746;13.474;2023-05-10T15:36:35;23.00;99.90
3100;DHT22;1560;52.746;13.474;2023-05-10T15:41:45;23.00;99.90
3100;DHT22;1560;52.746;13.474;2023-05-10T15:44:14;23.00;99.90
3100;DHT22;1560;52.746;13.474;2023-05-10T15:46:44;23.00;99.90
3100;DHT22;1560;52.746;13.474;2023-05-10T15:51:50;22.90;99.90
3100;DHT22;1560;52.746;13.474;2023-05-10T15:54:19;22.80;99.90
3100;DHT22;1560;52.746;13.474;2023-05-10T15:59:29;22.80;99.90
3100;DHT22;1560;52.746;13.474;2023-05-10T16:01:58;22.80;99.90
3100;DHT22;1560;52.746;13.474;2023-05-10T16:04:27;22.80;99.90
3100;DHT22;1560;52.746;13.474;2023-05-10T16:09:36;22.70;99.90
3100;DHT22;1560;52.746;13.474;2023-05-10T16:14:43;22.80;99.90
3100;DHT22;1560;52.746;13.474;2023-05-10T16:17:12;22.80;99.90
3100;DHT22;1560;52.746;13.474;2023-05-10T16:19:41;22.60;99.90
3100;DHT22;1560;52.746;13.474;2023-05-10T16:24:52;22.60;99.90
3100;DHT22;1560;52.746;13.474;2023-05-10T16:27:21;22.60;99.90
3100;DHT22;1560;52.746;13.474;2023-05-10T16:32:28;22.50;99.90
3100;DHT22;1560;52.746;13.474;2023-05-10T16:37:43;22.50;99.90
3100;DHT22;1560;52.746;13.474;2023-05-10T16:42:49;22.50;99.90
3100;DHT22;1560;52.746;13.474;2023-05-10T16:45:19;22.50;99.90
3100;DHT22;1560;52.746;13.474;2023-05-10T16:53:26;22.20;99.90
3100;DHT22;1560;52.746;13.474;2023-05-10T16:55:56;22.10;99.90
3100;DHT22;1560;52.746;13.474;2023-05-10T17:01:08;21.90;99.90
3100;DHT22;1560;52.746;13.474;2023-05-10T17:03:37;21.90;99.90
3100;DHT22;1560;52.746;13.474;2023-05-10T17:06:07;21.90;99.90
3100;DHT22;1560;52.746;13.474;2023-05-10T17:11:15;21.80;99.90
3100;DHT22;1560;52.746;13.474;2023-05-10T17:13:46;21.80;99.90
3100;DHT22;1560;52.746;13.474;2023-05-10T17:18:52;21.70;99.90
3100;DHT22;1560;52.746;13.474;2023-05-10T17:21:22;21.60;1.00
3100;DHT22;1560;52.746;13.474;2023-05-10T17:23:51;21.50;1.00
3100;DHT22;1560;52.746;13.474;2023-05-10T18:38:22;20.20;99.90
3100;DHT22;1560;52.746;13.474;2023-05-10T18:44:12;20.00;99.90
3100;DHT22;1560;52.746;13.474;2023-05-10T19:30:50;19.20;1.00
3100;DHT22;1560;52.746;13.474;2023-05-10T19:33:51;19.10;99.90
3100;DHT22;1560;52.746;13.474;2023-05-10T19:43:05;18.90;99.90
3100;DHT22;1560;52.746;13.474;2023-05-10T19:58:21;18.60;99.90
3100;DHT22;1560;52.746;13.474;2023-05-10T20:00:51;18.50;99.90
3100;DHT22;1560;52.746;13.474;2023-05-10T20:03:20;18.40;99.90
3100;DHT22;1560;52.746;13.474;2023-05-10T20:05:49;18.40;99.90
3100;DHT22;1560;52.746;13.474;2023-05-10T20:08:18;18.30;99.90
3100;DHT22;1560;52.746;13.474;2023-05-10T20:10:48;18.30;99.90
3100;DHT22;1560;52.746;13.474;2023-05-10T20:13:17;18.30;99.90
3100;DHT22;1560;52.746;13.474;2023-05-10T20:15:46;18.20;99.90
3100;DHT22;1560;52.746;13.474;2023-05-10T20:18:15;18.10;99.90
3100;DHT22;1560;52.746;13.474;2023-05-10T20:20:44;18.10;99.90
3100;DHT22;1560;52.746;13.474;2023-05-10T20:23:13;18.00;99.90
3100;DHT22;1560;52.746;13.474;2023-05-10T20:25:42;17.90;99.90
3100;DHT22;1560;52.746;13.474;2023-05-10T20:30:53;17.80;99.90
3100;DHT22;1560;52.746;13.474;2023-05-10T20:33:23;17.80;99.90
3100;DHT22;1560;52.746;13.474;2023-05-10T20:35:52;17.70;99.90
3100;DHT22;1560;52.746;13.474;2023-05-10T20:38:21;17.60;99.90
3100;DHT22;1560;52.746;13.474;2023-05-10T20:40:50;17.60;99.90
3100;DHT22;1560;52.746;13.474;2023-05-10T20:43:19;17.60;99.90
3100;DHT22;1560;52.746;13.474;2023-05-10T20:45:48;17.50;99.90
3100;DHT22;1560;52.746;13.474;2023-05-10T20:48:17;17.50;99.90
3100;DHT22;1560;52.746;13.474;2023-05-10T20:50:46;17.40;99.90
3100;DHT22;1560;52.746;13.474;2023-05-10T20:53:16;17.40;99.90
3100;DHT22;1560;52.746;13.474;2023-05-10T20:55:45;17.40;99.90
3100;DHT22;1560;52.746;13.474;2023-05-10T21:00:52;17.20;99.90
3100;DHT22;1560;52.746;13.474;2023-05-10T21:03:21;17.10;99.90
3100;DHT22;1560;52.746;13.474;2023-05-10T21:05:50;17.10;99.90
3100;DHT22;1560;52.746;13.474;2023-05-10T21:08:19;17.10;99.90
3100;DHT22;1560;52.746;13.474;2023-05-10T21:10:48;17.10;99.90
3100;DHT22;1560;52.746;13.474;2023-05-10T21:15:56;17.10;99.90
3100;DHT22;1560;52.746;13.474;2023-05-10T21:21:03;17.00;99.90
3100;DHT22;1560;52.746;13.474;2023-05-10T21:23:32;17.00;99.90
3100;DHT22;1560;52.746;13.474;2023-05-10T21:28:44;16.90;99.90
3100;DHT22;1560;52.746;13.474;2023-05-10T21:31:13;16.80;99.90
3100;DHT22;1560;52.746;13.474;2023-05-10T21:33:42;16.70;99.90
3100;DHT22;1560;52.746;13.474;2023-05-10T21:38:53;16.60;99.90
3100;DHT22;1560;52.746;13.474;2023-05-10T21:41:22;16.50;99.90
3100;DHT22;1560;52.746;13.474;2023-05-10T21:43:51;16.50;99.90
3100;DHT22;1560;52.746;13.474;2023-05-10T21:46:20;16.50;99.90
3100;DHT22;1560;52.746;13.474;2023-05-10T21:48:49;16.40;99.90
3100;DHT22;1560;52.746;13.474;2023-05-10T21:53:58;16.40;99.90
3100;DHT22;1560;52.746;13.474;2023-05-10T21:56:27;16.30;99.90
3100;DHT22;1560;52.746;13.474;2023-05-10T21:58:56;16.30;99.90
3100;DHT22;1560;52.746;13.474;2023-05-10T22:01:25;16.30;99.90
3100;DHT22;1560;52.746;13.474;2023-05-10T22:03:55;16.20;99.90
3100;DHT22;1560;52.746;13.474;2023-05-10T22:06:24;16.10;99.90
3100;DHT22;1560;52.746;13.474;2023-05-10T22:08:53;16.00;99.90
3100;DHT22;1560;52.746;13.474;2023-05-10T22:11:22;16.00;99.90
3100;DHT22;1560;52.746;13.474;2023-05-10T22:13:51;16.00;99.90
3100;DHT22;1560;52.746;13.474;2023-05-10T22:16:20;15.90;99.90
3100;DHT22;1560;52.746;13.474;2023-05-10T22:18:50;15.90;99.90
3100;DHT22;1560;52.746;13.474;2023-05-10T22:24:03;15.70;99.90
3100;DHT22;1560;52.746;13.474;2023-05-10T22:26:32;15.70;99.90
3100;DHT22;1560;52.746;13.474;2023-05-10T22:29:01;15.60;99.90
3100;DHT22;1560;52.746;13.474;2023-05-10T22:34:08;15.50;99.90
3100;DHT22;1560;52.746;13.474;2023-05-10T22:36:37;15.40;99.90
3100;DHT22;1560;52.746;13.474;2023-05-10T22:39:06;15.40;99.90
3100;DHT22;1560;52.746;13.474;2023-05-10T22:44:17;15.40;99.90
3100;DHT22;1560;52.746;13.474;2023-05-10T22:49:26;15.40;99.90
3100;DHT22;1560;52.746;13.474;2023-05-10T22:51:55;15.30;99.90
3100;DHT22;1560;52.746;13.474;2023-05-10T22:54:24;15.30;99.90
3100;DHT22;1560;52.746;13.474;2023-05-10T22:56:53;15.30;99.90
3100;DHT22;1560;52.746;13.474;2023-05-10T23:02:02;15.20;99.90
3100;DHT22;1560;52.746;13.474;2023-05-10T23:04:31;15.10;99.90
3100;DHT22;1560;52.746;13.474;2023-05-10T23:07:01;15.00;99.90
3100;DHT22;1560;52.746;13.474;2023-05-10T23:09:30;15.00;99.90
3100;DHT22;1560;52.746;13.474;2023-05-10T23:11:59;15.00;99.90
3100;DHT22;1560;52.746;13.474;2023-05-10T23:14:28;15.00;99.90
3100;DHT22;1560;52.746;13.474;2023-05-10T23:16:57;14.80;99.90
3100;DHT22;1560;52.746;13.474;2023-05-10T23:22:05;14.70;99.90
3100;DHT22;1560;52.746;13.474;2023-05-10T23:24:34;14.70;99.90
3100;DHT22;1560;52.746;13.474;2023-05-10T23:27:03;14.60;99.90
3100;DHT22;1560;52.746;13.474;2023-05-10T23:32:16;14.50;99.90
3100;DHT22;1560;52.746;13.474;2023-05-10T23:34:45;14.50;99.90
3100;DHT22;1560;52.746;13.474;2023-05-10T23:39:52;14.40;99.90
3100;DHT22;1560;52.746;13.474;2023-05-10T23:42:21;14.40;99.90
3100;DHT22;1560;52.746;13.474;2023-05-10T23:44:51;14.40;99.90
3100;DHT22;1560;52.746;13.474;2023-05-10T23:47:20;14.40;99.90
3100;DHT22;1560;52.746;13.474;2023-05-10T23:49:50;14.30;99.90
3100;DHT22;1560;52.746;13.474;2023-05-10T23:54:57;14.20;99.90
